Warning: file_get_contents(/server/czul.ca/includes/../prompts/prompts.aboutus.json): failed to open stream: No such file or directory in /server/czul.ca/includes/prompts.inc.php on line 8

Warning: Invalid argument supplied for foreach() in /server/czul.ca/includes/prompts.inc.php on line 9

Warning: file_get_contents(/server/czul.ca/includes/../prompts/prompts.aboutus.json): failed to open stream: No such file or directory in /server/czul.ca/includes/prompts.inc.php on line 8

Warning: Invalid argument supplied for foreach() in /server/czul.ca/includes/prompts.inc.php on line 9

Warning: file_get_contents(/server/czul.ca/includes/../prompts/prompts.aboutus.json): failed to open stream: No such file or directory in /server/czul.ca/includes/prompts.inc.php on line 8

Warning: Invalid argument supplied for foreach() in /server/czul.ca/includes/prompts.inc.php on line 9
CZUL - FIR virtuelle de Montréal

CYNA

Natashquan Airport

{{ICAO_CODE}} CYNA
{{IATA_CODE}} YNA
{{NAME}} Natashquan Airport
{{LOCATION}} Natashquan, Quebec, CA
{{ELEVATION}} 39 {{FEET}} / 11.9 {{METERS}}
{{LATITUDE}} 50.19000000
{{LONGITUDE}} -61.78888889
{{METAR}} CYNA 171053Z AUTO 11016G23KT 4SM -RA BR OVC004 05/05 A2980 RMK SLP094
{{EXTRA_INFO}} {{DISPLAY_NOTAMS}}
{{DISPLAY_CHARTS}}
{{RUNWAY}} {{LENGTH}} {{WIDTH}} {{SURFACE}} {{ELEVATION}}
14 4495 ft 100 ft ASP 35 ft
32 4495 ft 100 ft ASP 39 ft